Time;durP1;ratioP1;P1;durP2;ratioP2;P2;SDS_P1;SDS_P2;PMS_P1;PMS_P2;Temp;Humidity;BMP_temperature;BMP_pressure;BME280_temperature;BME280_humidity;BME280_pressure;Samples;Min_cycle;Max_cycle;Signal;HPM_P1;HPM_P2
2022/07/01 00:02:54;;;;;;;18.92;11.27;;;;;;;21.67;80.97;98884.56;8402473;28;20067;-76
2022/07/01 00:06:55;;;;;;;14.80;11.35;;;;;;;21.65;80.98;98875.91;8376150;28;20055;-76
2022/07/01 00:10:56;;;;;;;14.77;10.98;;;;;;;21.63;80.64;98881.00;8355843;28;20580;-76
2022/07/01 00:14:57;;;;;;;17.15;10.77;;;;;;;21.59;80.50;98863.72;8385064;28;20120;-76
2022/07/01 00:18:58;;;;;;;15.93;9.88;;;;;;;21.54;80.53;98872.34;8382385;28;20116;-76
2022/07/01 00:22:59;;;;;;;14.30;8.80;;;;;;;21.48;80.09;98872.72;8393146;28;20378;-77
2022/07/01 00:27:00;;;;;;;16.08;8.55;;;;;;;21.48;79.69;98864.47;8388442;28;20119;-77
2022/07/01 00:31:01;;;;;;;12.75;8.27;;;;;;;21.46;79.29;98861.34;8404597;28;20454;-76
2022/07/01 00:35:02;;;;;;;8.73;7.20;;;;;;;21.47;78.68;98867.59;8383629;28;20070;-75
2022/07/01 00:39:03;;;;;;;14.77;8.10;;;;;;;21.47;78.29;98857.38;8403206;28;20044;-75
2022/07/01 00:43:04;;;;;;;12.32;7.90;;;;;;;21.46;77.83;98850.34;8398446;28;20531;-76
2022/07/01 00:47:11;;;;;;;10.10;6.47;;;;;;;21.46;77.43;98850.34;8381865;28;20439;-75
2022/07/01 00:51:12;;;;;;;20.60;6.90;;;;;;;21.47;75.96;98862.88;8402363;28;20052;-76
2022/07/01 00:55:14;;;;;;;11.10;6.28;;;;;;;21.53;75.62;98859.75;8392786;28;20106;-76
2022/07/01 00:59:15;;;;;;;13.32;7.22;;;;;;;21.50;75.94;98858.59;8362053;28;20060;-76
2022/07/01 01:03:16;;;;;;;12.73;8.02;;;;;;;21.48;76.19;98864.47;8368959;28;20040;-78
2022/07/01 01:07:17;;;;;;;13.25;8.95;;;;;;;21.38;76.66;98870.72;8404572;28;20037;-78
2022/07/01 01:11:19;;;;;;;17.63;8.88;;;;;;;21.23;77.83;98874.56;8393761;28;20040;-78
2022/07/01 01:15:21;;;;;;;15.55;8.88;;;;;;;21.15;78.29;98881.19;8386323;28;20554;-78
2022/07/01 01:19:22;;;;;;;11.90;8.38;;;;;;;21.02;78.48;98874.41;8384090;28;20474;-78
2022/07/01 01:23:23;;;;;;;15.45;9.32;;;;;;;20.80;78.86;98883.69;8394529;28;20114;-78
2022/07/01 01:27:24;;;;;;;14.90;8.95;;;;;;;20.67;79.29;98881.22;8410695;28;20489;-77
2022/07/01 01:31:35;;;;;;;14.30;9.43;;;;;;;20.56;79.32;98885.88;8406981;28;20090;-79
2022/07/01 01:35:37;;;;;;;15.40;9.75;;;;;;;20.51;79.56;98878.00;8405497;28;20043;-79
2022/07/01 01:39:38;;;;;;;18.30;9.63;;;;;;;20.45;79.97;98874.03;8401317;28;20117;-79
2022/07/01 01:43:39;;;;;;;21.75;9.15;;;;;;;20.37;80.20;98872.38;8401605;28;20041;-79
2022/07/01 01:47:40;;;;;;;12.93;9.95;;;;;;;20.35;80.42;98880.22;8342547;28;20489;-80
2022/07/01 01:51:41;;;;;;;18.85;9.52;;;;;;;20.32;80.71;98880.97;8403785;28;20048;-80
2022/07/01 01:55:43;;;;;;;14.40;9.63;;;;;;;20.32;80.70;98880.97;8417166;28;20496;-80
2022/07/01 01:59:44;;;;;;;16.85;8.65;;;;;;;20.27;80.81;98873.03;8400129;28;20404;-80
2022/07/01 02:03:47;;;;;;;18.52;10.32;;;;;;;20.24;80.82;98873.81;8405538;28;20086;-79
2022/07/01 02:07:48;;;;;;;13.43;10.00;;;;;;;20.16;81.02;98883.13;8392269;28;20047;-79
2022/07/01 02:11:49;;;;;;;15.85;9.73;;;;;;;20.05;81.64;98871.28;8379809;28;20036;-79
2022/07/01 02:15:51;;;;;;;16.02;9.45;;;;;;;20.01;81.62;98864.97;8414067;28;20048;-78
2022/07/01 02:19:52;;;;;;;15.20;8.63;;;;;;;19.95;82.04;98863.72;8392404;28;20049;-81
2022/07/01 02:23:53;;;;;;;13.05;8.45;;;;;;;19.91;81.98;98862.91;8409167;28;20040;-80
2022/07/01 02:27:54;;;;;;;16.10;8.95;;;;;;;19.87;81.93;98853.88;8415399;28;20056;-81
2022/07/01 02:31:55;;;;;;;14.68;7.97;;;;;;;19.85;81.88;98856.19;8395497;28;20059;-81
2022/07/01 02:35:56;;;;;;;21.00;9.38;;;;;;;19.81;81.99;98856.97;8407458;28;20061;-81
2022/07/01 02:39:57;;;;;;;14.48;9.18;;;;;;;19.80;81.86;98866.34;8391471;28;20047;-81
2022/07/01 02:43:58;;;;;;;12.35;8.55;;;;;;;19.73;82.47;98866.25;8380039;28;20039;-81
2022/07/01 02:48:01;;;;;;;13.30;8.68;;;;;;;19.74;82.62;98856.88;8415054;28;20086;-81
2022/07/01 02:52:02;;;;;;;15.98;8.77;;;;;;;19.67;82.79;98856.78;8403122;28;20131;-81
2022/07/01 02:56:03;;;;;;;19.60;9.15;;;;;;;19.65;82.93;98853.66;8408825;28;20444;-80
2022/07/01 03:00:06;;;;;;;14.05;8.02;;;;;;;19.65;82.91;98859.13;8413303;28;20041;-78
2022/07/01 03:04:07;;;;;;;20.38;9.68;;;;;;;19.61;83.39;98863.78;8405360;28;20040;-79
2022/07/01 03:08:07;;;;;;;19.45;9.75;;;;;;;19.65;83.53;98859.13;8401571;28;20164;-78
2022/07/01 03:12:24;;;;;;;12.88;9.23;;;;;;;19.71;83.44;98845.88;8410429;28;20048;-78
2022/07/01 03:16:25;;;;;;;12.77;9.50;;;;;;;19.81;82.98;98846.00;8413170;28;20085;-79
2022/07/01 03:20:26;;;;;;;16.05;9.40;;;;;;;19.94;82.53;98853.94;8383854;28;20106;-78
2022/07/01 03:24:27;;;;;;;15.95;9.75;;;;;;;20.05;82.22;98852.09;8376726;28;20073;-78
2022/07/01 03:28:28;;;;;;;18.25;10.65;;;;;;;20.14;82.13;98855.31;8377933;28;20048;-77
2022/07/01 03:32:28;;;;;;;15.73;11.18;;;;;;;20.28;81.88;98847.22;8375565;28;20525;-79
2022/07/01 03:36:30;;;;;;;21.35;12.57;;;;;;;20.46;81.57;98848.16;8376123;28;20075;-79
2022/07/01 03:40:32;;;;;;;23.20;12.80;;;;;;;20.64;81.44;98860.06;8383941;28;20032;-80
2022/07/01 03:44:34;;;;;;;20.55;13.20;;;;;;;20.79;81.15;98860.94;8395477;28;20647;-81
2022/07/01 03:48:35;;;;;;;21.90;14.35;;;;;;;20.94;81.30;98856.31;8396744;28;20037;-80
2022/07/01 03:52:36;;;;;;;34.33;14.13;;;;;;;21.12;80.80;98846.22;8397291;28;20060;-80
2022/07/01 03:56:37;;;;;;;31.60;13.45;;;;;;;21.29;80.48;98845.56;8395092;28;20123;-82
2022/07/01 04:00:38;;;;;;;24.67;13.85;;;;;;;21.41;80.32;98858.94;8387284;28;20044;-80
2022/07/01 04:04:39;;;;;;;20.98;14.45;;;;;;;21.54;79.86;98861.34;8397142;28;20405;-80
2022/07/01 04:08:43;;;;;;;23.02;14.23;;;;;;;21.64;79.68;98866.09;8404182;28;20075;-79
2022/07/01 04:12:48;;;;;;;19.10;13.80;;;;;;;21.70;79.61;98861.78;8412883;28;20119;-85
2022/07/01 04:16:49;;;;;;;22.92;13.93;;;;;;;21.78;79.42;98863.41;8427670;28;20048;-79
2022/07/01 04:25:09;;;;;;;27.95;14.43;;;;;;;21.96;78.73;98853.25;8406289;28;20048;-80
2022/07/01 04:29:10;;;;;;;26.42;14.35;;;;;;;22.03;78.65;98861.50;8394625;28;20123;-79
2022/07/01 04:33:12;;;;;;;20.83;14.38;;;;;;;22.12;78.46;98870.16;8379767;28;20469;-80
2022/07/01 04:37:13;;;;;;;21.23;15.02;;;;;;;22.22;78.36;98863.88;8392506;28;20442;-79
2022/07/01 04:45:34;;;;;;;23.35;15.40;;;;;;;22.42;78.13;98860.75;8392640;28;20036;-81
2022/07/01 04:49:35;;;;;;;31.45;16.02;;;;;;;22.42;78.61;98858.00;8376229;28;21034;-80
2022/07/01 04:53:36;;;;;;;22.42;16.52;;;;;;;22.42;78.66;98863.50;8379548;28;20064;-79
2022/07/01 04:57:37;;;;;;;26.70;16.73;;;;;;;22.41;78.93;98875.69;8367625;28;20489;-79
2022/07/01 05:01:40;;;;;;;30.88;17.75;;;;;;;22.39;79.25;98878.81;8374693;28;20055;-80
2022/07/01 05:05:41;;;;;;;30.85;18.27;;;;;;;22.49;78.77;98882.75;8369029;28;20056;-79
2022/07/01 05:09:42;;;;;;;28.92;17.75;;;;;;;22.56;78.86;98882.75;8339414;28;20497;-79
2022/07/01 05:13:43;;;;;;;33.75;19.15;;;;;;;22.64;79.06;98878.81;8371573;28;20552;-81
2022/07/01 05:22:03;;;;;;;31.00;19.48;;;;;;;22.71;79.20;98867.84;8390787;28;20127;-80
2022/07/01 05:26:04;;;;;;;27.05;18.67;;;;;;;22.69;79.69;98854.44;8376411;28;20048;-80
2022/07/01 05:30:06;;;;;;;29.02;19.40;;;;;;;22.78;79.77;98856.81;8376606;28;20098;-80
2022/07/01 05:34:07;;;;;;;31.38;19.95;;;;;;;22.85;79.84;98862.31;8393729;28;20040;-79
2022/07/01 05:38:09;;;;;;;34.47;19.83;;;;;;;22.82;80.31;98865.84;8394254;28;20041;-81
2022/07/01 05:42:11;;;;;;;36.33;20.25;;;;;;;22.93;80.26;98863.88;8367467;28;20191;-81
2022/07/01 05:46:14;;;;;;;37.75;20.05;;;;;;;23.02;80.13;98855.97;8360060;28;20048;-81
2022/07/01 05:50:15;;;;;;;34.85;22.25;;;;;;;23.00;80.64;98863.84;8394926;28;20044;-81
2022/07/01 05:54:18;;;;;;;35.03;20.58;;;;;;;23.10;80.61;98863.06;8394868;28;20094;-81
2022/07/01 05:58:19;;;;;;;30.50;21.08;;;;;;;23.21;80.73;98867.75;8393714;28;20040;-81
2022/07/01 06:02:20;;;;;;;34.88;21.45;;;;;;;23.24;80.50;98873.22;8394205;28;20040;-81
2022/07/01 06:06:22;;;;;;;33.88;21.17;;;;;;;23.31;80.39;98872.44;8382179;28;20049;-81
2022/07/01 06:10:26;;;;;;;38.33;20.73;;;;;;;23.36;80.67;98864.53;8397604;28;20546;-80
2022/07/01 06:14:27;;;;;;;37.63;22.23;;;;;;;23.30;80.79;98866.13;8407415;28;20472;-81
2022/07/01 06:18:28;;;;;;;32.85;22.98;;;;;;;23.36;80.97;98870.03;8413275;28;20047;-81
2022/07/01 06:22:29;;;;;;;30.17;21.58;;;;;;;23.51;81.21;98870.81;8402581;28;20036;-82
2022/07/01 06:26:30;;;;;;;34.47;24.23;;;;;;;23.62;80.84;98866.03;8400529;28;20449;-81
2022/07/01 06:30:31;;;;;;;41.05;25.45;;;;;;;23.68;80.75;98863.63;8407598;28;20402;-81
2022/07/01 06:34:32;;;;;;;42.30;23.85;;;;;;;23.71;80.82;98860.84;8399880;28;20052;-81
2022/07/01 06:38:33;;;;;;;30.98;23.30;;;;;;;23.77;80.88;98862.00;8399888;28;20532;-82
2022/07/01 06:42:34;;;;;;;32.78;24.48;;;;;;;23.81;80.48;98862.75;8400077;28;20056;-81
2022/07/01 06:46:35;;;;;;;34.70;23.92;;;;;;;23.94;80.78;98861.13;8399877;28;20045;-80
2022/07/01 06:50:36;;;;;;;33.05;23.27;;;;;;;24.00;80.73;98856.72;8399834;28;20040;-82
2022/07/01 06:54:37;;;;;;;41.28;23.55;;;;;;;24.05;80.35;98865.78;8413005;28;20497;-80
2022/07/01 06:58:38;;;;;;;34.38;23.63;;;;;;;24.13;80.55;98861.78;8398006;28;20433;-80
2022/07/01 07:02:39;;;;;;;36.35;23.25;;;;;;;24.22;80.58;98859.38;8398472;28;20044;-81
2022/07/01 07:06:40;;;;;;;36.60;23.15;;;;;;;24.32;80.37;98853.00;8418088;28;20048;-79
2022/07/01 07:10:41;;;;;;;33.97;24.40;;;;;;;24.44;79.54;98855.25;8432724;28;20147;-82
2022/07/01 07:14:43;;;;;;;40.95;23.80;;;;;;;24.56;79.64;98870.53;8427978;28;20048;-81
2022/07/01 07:18:44;;;;;;;34.83;23.10;;;;;;;24.65;79.39;98866.13;8420745;28;20057;-79
2022/07/01 07:22:46;;;;;;;32.17;23.05;;;;;;;24.79;78.88;98860.47;8417265;28;20511;-82
2022/07/01 07:26:47;;;;;;;34.97;22.95;;;;;;;24.92;78.81;98851.69;8417778;28;20177;-81
2022/07/01 07:30:48;;;;;;;34.28;21.98;;;;;;;25.03;78.29;98857.88;8431620;28;20040;-79
2022/07/01 07:34:49;;;;;;;39.38;23.13;;;;;;;25.13;78.09;98851.44;8428102;28;20063;-80
2022/07/01 07:38:50;;;;;;;34.83;22.98;;;;;;;25.23;78.21;98858.84;8415661;28;20040;-81
2022/07/01 07:42:51;;;;;;;37.03;22.48;;;;;;;25.31;78.15;98857.56;8431505;28;20051;-81
2022/07/01 07:46:52;;;;;;;32.20;22.67;;;;;;;25.48;77.67;98853.81;8431742;28;20404;-81
2022/07/01 07:50:53;;;;;;;36.00;21.77;;;;;;;25.55;77.18;98850.97;8402795;28;20040;-80
2022/07/01 07:54:54;;;;;;;33.28;22.33;;;;;;;25.69;76.27;98854.75;8425893;28;20048;-80
2022/07/01 07:58:55;;;;;;;33.15;21.52;;;;;;;25.83;76.14;98854.56;8410096;28;20472;-80
2022/07/01 08:02:56;;;;;;;30.92;21.58;;;;;;;25.98;75.32;98861.44;8387263;28;20045;-80
2022/07/01 08:06:58;;;;;;;34.80;21.15;;;;;;;26.08;75.09;98863.28;8399525;28;20166;-81
2022/07/01 08:10:59;;;;;;;29.23;20.52;;;;;;;26.16;74.89;98867.50;8391030;28;20476;-82
2022/07/01 08:15:01;;;;;;;32.53;20.45;;;;;;;26.33;74.68;98869.22;8413926;28;20724;-81
2022/07/01 08:19:02;;;;;;;30.13;20.17;;;;;;;26.52;73.83;98878.03;8411406;28;20045;-82
2022/07/01 08:23:03;;;;;;;28.98;20.13;;;;;;;26.66;73.18;98883.34;8407612;28;20040;-80
2022/07/01 08:27:04;;;;;;;30.30;20.95;;;;;;;26.79;72.59;98881.53;8401079;28;20115;-81
2022/07/01 08:31:05;;;;;;;30.15;20.70;;;;;;;26.90;72.60;98882.16;8385120;28;20127;-83
2022/07/01 08:35:07;;;;;;;30.92;20.17;;;;;;;27.03;70.81;98880.31;8429875;28;20048;-80
2022/07/01 08:39:08;;;;;;;33.03;19.45;;;;;;;27.17;70.79;98885.63;8408507;28;20047;-82
2022/07/01 08:43:09;;;;;;;27.48;19.83;;;;;;;27.37;71.03;98879.28;8406285;28;20396;-80
2022/07/01 08:47:13;;;;;;;31.27;19.35;;;;;;;27.50;70.05;98880.22;8427965;28;20043;-82
2022/07/01 08:51:15;;;;;;;29.38;19.15;;;;;;;27.64;69.41;98875.19;8416827;28;20052;-80
2022/07/01 08:55:16;;;;;;;32.60;18.90;;;;;;;27.81;68.50;98864.94;8380791;28;20052;-80
2022/07/01 08:59:25;;;;;;;25.35;18.17;;;;;;;27.94;67.23;98865.81;8404261;28;20063;-81
2022/07/01 09:03:25;;;;;;;22.63;16.73;;;;;;;28.08;66.96;98871.03;8378628;28;20056;-83
2022/07/01 09:07:33;;;;;;;24.10;16.95;;;;;;;28.19;64.81;98875.56;8417817;28;20730;-80
2022/07/01 09:11:34;;;;;;;30.73;16.90;;;;;;;28.30;65.36;98868.56;8426665;28;20044;-80
2022/07/01 09:15:37;;;;;;;31.48;17.15;;;;;;;28.43;63.86;98874.22;8392861;28;20055;-81
2022/07/01 09:19:39;;;;;;;28.35;16.08;;;;;;;28.55;62.95;98881.84;8414481;28;20055;-83
2022/07/01 09:23:41;;;;;;;22.25;16.33;;;;;;;28.72;64.35;98880.63;8413575;28;20040;-84
2022/07/01 09:27:42;;;;;;;24.08;14.40;;;;;;;28.82;61.93;98878.78;8390212;28;20568;-87
2022/07/01 09:31:49;;;;;;;31.40;14.00;;;;;;;28.96;62.58;98879.22;8405695;28;20515;-82
2022/07/01 09:35:54;;;;;;;29.05;14.73;;;;;;;29.22;62.43;98884.88;8352940;28;20082;-82
2022/07/01 09:39:57;;;;;;;32.78;14.95;;;;;;;29.21;62.94;98872.97;8412874;28;20040;-80
2022/07/01 09:44:04;;;;;;;22.17;14.13;;;;;;;29.33;62.98;98874.28;8392090;28;20040;-82
2022/07/01 09:48:05;;;;;;;23.53;15.33;;;;;;;29.53;61.98;98863.75;8394562;28;20393;-83
2022/07/01 09:52:06;;;;;;;22.88;13.68;;;;;;;29.54;58.91;98862.53;8378281;28;20056;-83
2022/07/01 09:56:07;;;;;;;17.58;13.60;;;;;;;29.55;57.36;98860.53;8386640;28;20476;-83
2022/07/01 10:00:09;;;;;;;18.35;13.93;;;;;;;29.63;58.47;98854.31;8427635;28;20101;-82
2022/07/01 10:04:11;;;;;;;26.27;14.85;;;;;;;29.90;59.33;98844.78;8389308;28;20053;-82
2022/07/01 10:08:12;;;;;;;14.95;11.80;;;;;;;30.16;58.93;98832.44;8424083;28;20048;-81
2022/07/01 10:12:35;;;;;;;22.52;12.70;;;;;;;30.28;57.88;98837.22;8428015;28;20067;-83
2022/07/01 10:16:38;;;;;;;26.77;12.02;;;;;;;30.51;57.40;98828.50;8427500;28;20506;-82
2022/07/01 10:20:40;;;;;;;23.45;12.05;;;;;;;30.76;55.54;98829.66;8427984;28;20071;-81
2022/07/01 10:24:40;;;;;;;16.40;12.00;;;;;;;30.55;55.61;98823.59;8414211;28;20075;-82
2022/07/01 10:28:45;;;;;;;19.48;12.82;;;;;;;30.55;57.14;98823.59;8377146;28;20078;-82
2022/07/01 10:32:48;;;;;;;23.88;11.88;;;;;;;30.56;55.12;98825.13;8329404;28;20513;-82
2022/07/01 10:37:08;;;;;;;28.33;12.23;;;;;;;30.71;54.21;98825.44;8393261;28;20515;-79
2022/07/01 10:41:22;;;;;;;20.10;11.35;;;;;;;31.08;53.15;98801.44;8397597;28;20064;-82
2022/07/01 10:45:24;;;;;;;20.48;11.13;;;;;;;31.34;51.92;98800.06;8420792;28;20144;-84
2022/07/01 10:49:34;;;;;;;17.58;12.02;;;;;;;31.40;53.10;98798.25;8387824;28;20043;-80
2022/07/01 10:53:47;;;;;;;18.10;11.63;;;;;;;31.56;53.56;98799.25;8385654;28;20053;-82
2022/07/01 10:57:53;;;;;;;22.25;9.77;;;;;;;31.57;48.82;98806.41;8388912;28;20414;-82
2022/07/01 11:01:55;;;;;;;19.80;10.07;;;;;;;31.70;50.27;98807.09;8383004;28;20485;-83
2022/07/01 11:05:56;;;;;;;14.98;10.00;;;;;;;31.71;48.21;98822.63;8399350;28;20066;-82
2022/07/01 11:09:59;;;;;;;16.65;9.73;;;;;;;31.78;50.19;98828.69;8401602;28;20043;-83
2022/07/01 11:14:00;;;;;;;17.00;10.60;;;;;;;31.87;48.15;98841.94;8417891;28;20040;-88
2022/07/01 11:18:02;;;;;;;18.65;9.48;;;;;;;31.92;48.65;98857.31;8406489;28;20062;-82
2022/07/01 11:22:05;;;;;;;15.65;10.40;;;;;;;32.09;49.03;98853.81;8392271;28;20069;-82
2022/07/01 11:26:07;;;;;;;22.33;10.15;;;;;;;32.22;49.76;98823.00;8403638;28;20040;-82
2022/07/01 11:30:12;;;;;;;18.98;10.80;;;;;;;32.47;50.06;98810.78;8384678;28;20060;-81
2022/07/01 11:34:16;;;;;;;14.85;10.85;;;;;;;32.65;50.25;98810.84;8419910;28;20032;-81
2022/07/01 11:42:40;;;;;;;19.90;10.25;;;;;;;32.79;48.25;98810.22;8383800;28;20045;-81
2022/07/01 11:46:49;;;;;;;12.35;10.20;;;;;;;32.56;48.67;98813.59;8378122;28;20045;-81
2022/07/01 11:50:50;;;;;;;19.98;10.57;;;;;;;32.83;49.29;98805.25;8396788;28;20049;-81
2022/07/01 11:54:57;;;;;;;16.95;10.63;;;;;;;32.94;47.77;98816.72;8397903;28;20072;-83
2022/07/01 11:58:58;;;;;;;19.75;11.35;;;;;;;32.81;47.40;98802.16;8413408;28;20044;-80
2022/07/01 12:02:59;;;;;;;19.55;10.18;;;;;;;32.69;48.12;98777.91;8407939;28;20048;-83
2022/07/01 12:07:00;;;;;;;15.10;9.25;;;;;;;32.58;48.89;98794.31;8411364;28;20044;-83
2022/07/01 12:11:02;;;;;;;17.88;9.65;;;;;;;32.57;48.68;98798.38;8375792;28;20055;-86
2022/07/01 12:15:13;;;;;;;22.23;9.93;;;;;;;32.33;47.12;98800.19;8383564;28;20406;-82
2022/07/01 12:19:14;;;;;;;13.55;9.63;;;;;;;32.17;47.41;98799.25;8376208;28;20519;-86
2022/07/01 12:23:15;;;;;;;19.92;9.90;;;;;;;32.15;47.44;98796.13;8397335;28;20115;-82
2022/07/01 12:27:20;;;;;;;11.65;9.98;;;;;;;32.01;48.63;98819.03;8405424;28;20097;-84
2022/07/01 12:31:22;;;;;;;23.60;10.32;;;;;;;31.65;48.81;98810.50;8399709;28;20115;-84
2022/07/01 12:35:36;;;;;;;20.35;10.02;;;;;;;31.31;49.44;98792.59;8398240;28;20379;-84
2022/07/01 12:39:52;;;;;;;16.50;9.70;;;;;;;30.67;52.35;98796.16;8395936;28;20040;-83
2022/07/01 12:43:53;;;;;;;19.45;9.60;;;;;;;30.41;53.20;98768.31;8367332;28;20075;-82
2022/07/01 12:47:56;;;;;;;18.55;9.25;;;;;;;30.29;54.06;98788.63;8396710;28;20143;-85
2022/07/01 12:51:57;;;;;;;23.85;9.55;;;;;;;30.27;54.61;98807.78;8370976;28;20058;-84
2022/07/01 12:55:58;;;;;;;16.05;10.40;;;;;;;30.31;55.48;98829.94;8409019;28;20504;-86
2022/07/01 12:59:59;;;;;;;24.42;9.52;;;;;;;29.89;56.60;98848.78;8395682;28;20053;-83
2022/07/01 13:04:00;;;;;;;12.95;9.35;;;;;;;29.50;57.17;98884.13;8393905;28;20461;-84
2022/07/01 13:08:05;;;;;;;17.85;10.35;;;;;;;28.96;61.43;98884.78;8397323;28;20507;-80
2022/07/01 13:12:11;;;;;;;17.60;11.90;;;;;;;28.42;65.05;98895.66;8412725;28;20036;-80
2022/07/01 13:16:13;;;;;;;18.25;11.82;;;;;;;28.00;67.59;98908.50;8361593;28;20143;-83
2022/07/01 13:20:20;;;;;;;25.70;12.88;;;;;;;27.63;69.70;98911.66;8415058;28;20042;-81
2022/07/01 13:24:25;;;;;;;20.83;12.45;;;;;;;27.34;71.21;98938.38;8353352;28;20423;-82
2022/07/01 13:28:26;;;;;;;23.25;12.15;;;;;;;27.08;73.23;98893.69;8406428;28;20085;-81
2022/07/01 13:32:27;;;;;;;19.48;12.55;;;;;;;26.97;74.77;98890.31;8372014;28;20045;-80
2022/07/01 13:36:31;;;;;;;18.05;12.60;;;;;;;26.89;75.09;98880.59;8410321;28;20443;-79
2022/07/01 13:40:34;;;;;;;22.98;12.57;;;;;;;26.74;75.90;98918.03;8393010;28;20041;-80
2022/07/01 13:44:37;;;;;;;22.13;13.48;;;;;;;26.55;77.34;98932.56;8386957;28;20147;-82
2022/07/01 13:48:39;;;;;;;22.83;13.02;;;;;;;26.18;78.20;98948.13;8376125;28;20139;-81
2022/07/01 13:52:42;;;;;;;17.20;12.73;;;;;;;26.10;78.29;98941.13;8350248;28;20052;-81
2022/07/01 13:56:50;;;;;;;20.45;13.20;;;;;;;26.13;78.66;98922.91;8313849;28;20049;-80
2022/07/01 14:00:55;;;;;;;17.40;12.27;;;;;;;26.04;79.17;98898.53;8348932;28;20460;-79
2022/07/01 14:04:57;;;;;;;19.88;12.27;;;;;;;25.89;78.99;98886.09;8338496;28;20092;-80
2022/07/01 14:09:02;;;;;;;16.83;12.48;;;;;;;25.75;79.47;98891.81;8347320;28;20045;-81
2022/07/01 14:13:06;;;;;;;20.40;12.43;;;;;;;25.50;80.61;98903.94;8355166;28;20492;-79
2022/07/01 14:17:07;;;;;;;18.30;12.05;;;;;;;25.22;81.69;98965.81;8356753;28;20052;-79
2022/07/01 14:21:10;;;;;;;16.77;11.15;;;;;;;24.69;82.83;99043.59;8336150;28;20045;-79
2022/07/01 14:25:13;;;;;;;20.27;11.88;;;;;;;24.32;84.96;99062.75;8342612;28;20048;-79
2022/07/01 14:29:15;;;;;;;13.00;8.52;;;;;;;23.94;80.74;99018.34;8350455;28;20048;-81
2022/07/01 14:33:18;;;;;;;19.77;7.43;;;;;;;23.27;82.37;99070.00;8354024;28;20393;-83
2022/07/01 14:37:19;;;;;;;17.75;7.78;;;;;;;22.62;86.02;99073.84;8344067;28;20398;-78
2022/07/01 14:41:21;;;;;;;15.55;8.75;;;;;;;22.30;87.43;99118.56;8353273;28;20401;-79
2022/07/01 14:45:22;;;;;;;21.40;11.77;;;;;;;22.18;90.80;99127.13;8357765;28;20049;-80
2022/07/01 14:49:24;;;;;;;15.88;11.13;;;;;;;22.35;91.34;99152.38;8364657;28;20116;-82
2022/07/01 14:53:30;;;;;;;23.42;15.00;;;;;;;22.43;92.10;99132.75;8391646;28;20051;-81
2022/07/01 14:57:55;;;;;;;22.63;16.52;;;;;;;22.48;93.16;99084.81;8376071;28;20085;-83
2022/07/01 15:02:03;;;;;;;24.67;20.40;;;;;;;22.52;94.57;99091.13;8309678;28;21116;-80
2022/07/01 15:06:05;;;;;;;29.92;20.25;;;;;;;22.54;93.39;99050.22;8336767;28;20053;-81
2022/07/01 15:10:07;;;;;;;27.00;21.45;;;;;;;22.56;93.68;99031.38;8272348;28;20043;-81
2022/07/01 15:14:08;;;;;;;28.00;21.38;;;;;;;22.67;93.08;99059.72;8262188;28;20055;-80
2022/07/01 15:18:09;;;;;;;26.65;21.92;;;;;;;22.70;93.52;99069.94;8268954;28;20198;-82
2022/07/01 15:22:12;;;;;;;26.13;19.95;;;;;;;22.76;93.60;99068.41;8259453;28;20058;-82
2022/07/01 15:26:13;;;;;;;24.55;19.38;;;;;;;22.78;92.98;99060.56;8254162;28;20046;-83
2022/07/01 15:30:16;;;;;;;29.48;18.45;;;;;;;22.83;93.08;99068.44;8261634;28;20050;-82
2022/07/01 15:34:18;;;;;;;24.50;18.35;;;;;;;22.88;92.90;99065.28;8254639;28;20145;-82
2022/07/01 15:38:22;;;;;;;25.00;18.92;;;;;;;22.94;94.01;99113.28;8249997;28;20046;-83
2022/07/01 15:42:26;;;;;;;28.20;19.77;;;;;;;22.93;93.80;99077.88;8310907;28;20107;-82
2022/07/01 15:46:28;;;;;;;25.35;19.20;;;;;;;22.93;94.08;99083.38;8365962;28;20488;-83
2022/07/01 15:50:29;;;;;;;32.50;19.23;;;;;;;22.93;94.60;99089.69;8397758;28;20489;-81
2022/07/01 15:54:30;;;;;;;29.63;19.52;;;;;;;22.83;94.84;99029.88;8395530;28;20060;-82
2022/07/01 15:58:33;;;;;;;29.65;19.20;;;;;;;22.82;95.11;99055.84;8398692;28;20052;-80
2022/07/01 16:02:37;;;;;;;28.65;19.05;;;;;;;22.72;95.06;99095.13;8400126;28;20135;-81
2022/07/01 16:06:38;;;;;;;28.15;18.73;;;;;;;22.59;95.93;99135.97;8319380;28;20052;-81
2022/07/01 16:10:49;;;;;;;27.10;18.92;;;;;;;22.49;96.36;99119.41;8390340;28;20060;-82
2022/07/01 16:14:50;;;;;;;31.25;19.83;;;;;;;22.48;97.08;99128.84;8363210;28;20068;-82
2022/07/01 16:18:54;;;;;;;27.65;21.13;;;;;;;22.38;97.18;99124.06;8415766;28;20607;-80
2022/07/01 16:22:56;;;;;;;29.63;21.35;;;;;;;22.36;97.73;99148.47;8398732;28;20127;-79
2022/07/01 16:26:58;;;;;;;29.42;20.60;;;;;;;22.36;96.64;99159.47;8352812;28;20045;-83
2022/07/01 16:31:00;;;;;;;26.15;19.75;;;;;;;22.54;95.83;99163.06;8374338;28;20052;-83
2022/07/01 16:35:03;;;;;;;26.98;19.85;;;;;;;22.62;95.57;99172.94;8353760;28;20147;-84
2022/07/01 16:39:06;;;;;;;27.45;20.00;;;;;;;22.55;95.04;99161.91;8341709;28;20174;-81
2022/07/01 16:43:10;;;;;;;25.48;18.80;;;;;;;22.41;95.25;99167.34;8357045;28;20064;-83
2022/07/01 16:47:26;;;;;;;28.50;18.27;;;;;;;22.30;95.61;99137.81;8342191;28;20597;-80
2022/07/01 16:51:32;;;;;;;25.73;17.75;;;;;;;22.21;95.64;99115.34;8341651;28;20096;-82
2022/07/01 16:55:36;;;;;;;17.08;14.98;;;;;;;22.09;95.66;99107.47;8355069;28;20057;-82
2022/07/01 16:59:39;;;;;;;20.27;14.00;;;;;;;21.96;95.08;99103.44;8314891;28;20494;-82
2022/07/01 17:03:41;;;;;;;20.40;14.10;;;;;;;21.83;94.80;99121.41;8339519;28;20600;-82
2022/07/01 17:07:43;;;;;;;16.42;12.75;;;;;;;21.76;94.61;99138.66;8345210;28;20049;-83
2022/07/01 17:11:45;;;;;;;15.73;12.80;;;;;;;21.70;94.45;99111.88;8347341;28;20041;-83
2022/07/01 17:15:46;;;;;;;22.70;12.68;;;;;;;21.77;93.84;99100.94;8308293;28;20049;-81
2022/07/01 17:19:51;;;;;;;18.83;11.52;;;;;;;21.68;93.59;99144.47;8336292;28;20049;-82
2022/07/01 17:23:54;;;;;;;18.05;10.98;;;;;;;21.61;92.52;99144.41;8355179;28;20121;-83
2022/07/01 17:28:02;;;;;;;16.92;10.75;;;;;;;21.47;93.01;99137.63;8351983;28;20050;-84
2022/07/01 17:32:09;;;;;;;12.20;8.57;;;;;;;21.36;91.93;99152.47;8391618;28;20044;-81
2022/07/01 17:36:22;;;;;;;12.23;7.22;;;;;;;21.17;90.55;99150.72;8349999;28;21007;-81
2022/07/01 17:40:26;;;;;;;9.98;6.75;;;;;;;21.13;89.72;99163.59;8372954;28;20440;-84
2022/07/01 17:44:28;;;;;;;9.82;5.53;;;;;;;20.99;88.43;99160.72;8393135;28;20051;-86
2022/07/01 17:48:32;;;;;;;8.13;4.15;;;;;;;20.85;87.88;99171.50;8390970;28;20412;-79
2022/07/01 17:52:33;;;;;;;9.60;4.18;;;;;;;20.70;86.93;99191.72;8389731;28;20045;-82
2022/07/01 17:56:34;;;;;;;8.38;3.70;;;;;;;20.57;85.90;99194.72;8392299;28;20041;-83
2022/07/01 18:00:55;;;;;;;7.57;4.20;;;;;;;20.45;86.26;99192.22;8395025;28;20403;-82
2022/07/01 18:04:57;;;;;;;7.40;3.95;;;;;;;20.38;86.18;99192.13;8318886;28;20064;-81
2022/07/01 18:09:01;;;;;;;9.05;4.20;;;;;;;20.24;87.29;99213.84;8315136;28;20062;-83
2022/07/01 18:13:05;;;;;;;8.05;4.50;;;;;;;20.19;87.52;99223.19;8305864;28;20061;-83
2022/07/01 18:17:20;;;;;;;9.95;4.32;;;;;;;20.18;87.27;99264.66;8327486;28;20161;-85
2022/07/01 18:21:23;;;;;;;5.85;4.15;;;;;;;20.19;87.30;99299.16;8296997;28;20042;-82
2022/07/01 18:25:27;;;;;;;5.00;4.30;;;;;;;20.17;86.88;99328.88;8324146;28;20061;-81
2022/07/01 18:29:29;;;;;;;6.35;4.22;;;;;;;20.16;87.67;99371.16;8325942;28;20064;-80
2022/07/01 18:33:34;;;;;;;4.40;4.00;;;;;;;20.09;86.96;99393.75;8330010;28;20048;-82
2022/07/01 18:37:49;;;;;;;7.95;3.65;;;;;;;20.07;86.91;99418.03;8396746;28;20044;-80
2022/07/01 18:41:52;;;;;;;5.88;3.97;;;;;;;19.99;87.40;99431.94;8406661;28;20032;-82
2022/07/01 18:45:54;;;;;;;5.10;3.88;;;;;;;19.94;87.21;99429.50;8398104;28;20120;-80
2022/07/01 18:49:55;;;;;;;11.20;4.20;;;;;;;19.92;86.85;99453.75;8366306;28;20481;-84
2022/07/01 18:53:57;;;;;;;5.15;3.50;;;;;;;19.81;87.00;99459.84;8399042;28;20048;-81
2022/07/01 18:57:58;;;;;;;6.97;3.58;;;;;;;19.79;86.69;99453.09;8399530;28;20037;-80